sensor_id;sensor_type;location;lat;lon;timestamp;P1;durP1;ratioP1;P2;durP2;ratioP2
13868;SDS011;7004;48.206;16.402;2023-04-10T00:00:46;20.47;;;16.27;;
13868;SDS011;7004;48.206;16.402;2023-04-10T00:03:14;21.50;;;16.47;;
13868;SDS011;7004;48.206;16.402;2023-04-10T00:05:42;19.93;;;15.30;;
13868;SDS011;7004;48.206;16.402;2023-04-10T00:08:08;19.07;;;15.97;;
13868;SDS011;7004;48.206;16.402;2023-04-10T00:10:34;21.43;;;16.37;;
13868;SDS011;7004;48.206;16.402;2023-04-10T00:13:00;19.23;;;16.03;;
13868;SDS011;7004;48.206;16.402;2023-04-10T00:15:28;20.13;;;15.20;;
13868;SDS011;7004;48.206;16.402;2023-04-10T00:17:54;21.13;;;16.90;;
13868;SDS011;7004;48.206;16.402;2023-04-10T00:20:20;19.17;;;15.00;;
13868;SDS011;7004;48.206;16.402;2023-04-10T00:22:47;23.47;;;15.60;;
13868;SDS011;7004;48.206;16.402;2023-04-10T00:25:14;18.83;;;15.17;;
13868;SDS011;7004;48.206;16.402;2023-04-10T00:27:40;19.47;;;15.63;;
13868;SDS011;7004;48.206;16.402;2023-04-10T00:30:06;18.33;;;15.23;;
13868;SDS011;7004;48.206;16.402;2023-04-10T00:32:33;18.43;;;14.80;;
13868;SDS011;7004;48.206;16.402;2023-04-10T00:34:59;19.17;;;15.27;;
13868;SDS011;7004;48.206;16.402;2023-04-10T00:37:25;18.23;;;15.37;;
13868;SDS011;7004;48.206;16.402;2023-04-10T00:39:51;21.10;;;16.03;;
13868;SDS011;7004;48.206;16.402;2023-04-10T00:42:18;20.00;;;15.77;;
13868;SDS011;7004;48.206;16.402;2023-04-10T00:44:44;19.13;;;15.20;;
13868;SDS011;7004;48.206;16.402;2023-04-10T00:47:11;20.00;;;15.37;;
13868;SDS011;7004;48.206;16.402;2023-04-10T00:49:39;19.77;;;15.23;;
13868;SDS011;7004;48.206;16.402;2023-04-10T00:52:06;20.03;;;15.20;;
13868;SDS011;7004;48.206;16.402;2023-04-10T00:54:32;18.90;;;14.70;;
13868;SDS011;7004;48.206;16.402;2023-04-10T00:57:01;19.30;;;15.67;;
13868;SDS011;7004;48.206;16.402;2023-04-10T00:59:29;20.57;;;15.83;;
13868;SDS011;7004;48.206;16.402;2023-04-10T01:01:56;18.73;;;14.67;;
13868;SDS011;7004;48.206;16.402;2023-04-10T01:04:22;17.13;;;14.07;;
13868;SDS011;7004;48.206;16.402;2023-04-10T01:07:03;18.77;;;15.27;;
13868;SDS011;7004;48.206;16.402;2023-04-10T01:16:00;20.80;;;15.50;;
13868;SDS011;7004;48.206;16.402;2023-04-10T01:18:45;19.10;;;15.07;;
13868;SDS011;7004;48.206;16.402;2023-04-10T01:21:21;17.60;;;14.40;;
13868;SDS011;7004;48.206;16.402;2023-04-10T01:23:53;17.97;;;14.70;;
13868;SDS011;7004;48.206;16.402;2023-04-10T01:29:44;18.00;;;14.77;;
13868;SDS011;7004;48.206;16.402;2023-04-10T01:32:16;19.07;;;14.83;;
13868;SDS011;7004;48.206;16.402;2023-04-10T01:34:47;17.77;;;14.43;;
13868;SDS011;7004;48.206;16.402;2023-04-10T01:39:53;19.67;;;14.43;;
13868;SDS011;7004;48.206;16.402;2023-04-10T01:42:27;18.43;;;14.77;;
13868;SDS011;7004;48.206;16.402;2023-04-10T01:44:58;17.63;;;14.13;;
13868;SDS011;7004;48.206;16.402;2023-04-10T01:47:26;17.10;;;13.87;;
13868;SDS011;7004;48.206;16.402;2023-04-10T01:49:53;17.00;;;13.53;;
13868;SDS011;7004;48.206;16.402;2023-04-10T01:52:21;19.10;;;14.90;;
13868;SDS011;7004;48.206;16.402;2023-04-10T01:54:49;16.97;;;13.87;;
13868;SDS011;7004;48.206;16.402;2023-04-10T01:57:17;18.80;;;14.03;;
13868;SDS011;7004;48.206;16.402;2023-04-10T01:59:44;18.73;;;13.97;;
13868;SDS011;7004;48.206;16.402;2023-04-10T02:02:11;16.20;;;13.50;;
13868;SDS011;7004;48.206;16.402;2023-04-10T02:04:37;19.43;;;14.63;;
13868;SDS011;7004;48.206;16.402;2023-04-10T02:07:15;15.87;;;13.07;;
13868;SDS011;7004;48.206;16.402;2023-04-10T02:10:08;16.73;;;13.80;;
13868;SDS011;7004;48.206;16.402;2023-04-10T02:15:21;17.33;;;13.90;;
13868;SDS011;7004;48.206;16.402;2023-04-10T02:17:53;17.60;;;13.90;;
13868;SDS011;7004;48.206;16.402;2023-04-10T02:20:21;15.60;;;13.23;;
13868;SDS011;7004;48.206;16.402;2023-04-10T02:22:48;17.20;;;13.77;;
13868;SDS011;7004;48.206;16.402;2023-04-10T02:25:17;16.10;;;12.87;;
13868;SDS011;7004;48.206;16.402;2023-04-10T02:27:43;17.07;;;13.67;;
13868;SDS011;7004;48.206;16.402;2023-04-10T02:30:10;17.47;;;14.07;;
13868;SDS011;7004;48.206;16.402;2023-04-10T02:32:36;16.73;;;13.50;;
13868;SDS011;7004;48.206;16.402;2023-04-10T02:35:02;16.70;;;13.33;;
13868;SDS011;7004;48.206;16.402;2023-04-10T02:37:29;17.27;;;13.73;;
13868;SDS011;7004;48.206;16.402;2023-04-10T02:39:58;16.67;;;13.27;;
13868;SDS011;7004;48.206;16.402;2023-04-10T02:42:24;18.03;;;14.07;;
13868;SDS011;7004;48.206;16.402;2023-04-10T02:44:50;18.37;;;14.07;;
13868;SDS011;7004;48.206;16.402;2023-04-10T02:47:16;18.47;;;14.00;;
13868;SDS011;7004;48.206;16.402;2023-04-10T02:49:43;16.87;;;13.77;;
13868;SDS011;7004;48.206;16.402;2023-04-10T02:52:09;17.80;;;13.43;;
13868;SDS011;7004;48.206;16.402;2023-04-10T02:54:35;18.63;;;14.70;;
13868;SDS011;7004;48.206;16.402;2023-04-10T02:57:02;17.67;;;14.17;;
13868;SDS011;7004;48.206;16.402;2023-04-10T02:59:29;18.43;;;13.93;;
13868;SDS011;7004;48.206;16.402;2023-04-10T03:01:56;19.67;;;14.30;;
13868;SDS011;7004;48.206;16.402;2023-04-10T03:04:22;16.87;;;14.07;;
13868;SDS011;7004;48.206;16.402;2023-04-10T03:06:48;16.77;;;13.70;;
13868;SDS011;7004;48.206;16.402;2023-04-10T03:09:14;19.50;;;14.63;;
13868;SDS011;7004;48.206;16.402;2023-04-10T03:11:42;18.60;;;14.03;;
13868;SDS011;7004;48.206;16.402;2023-04-10T03:14:09;19.43;;;14.27;;
13868;SDS011;7004;48.206;16.402;2023-04-10T03:16:38;18.60;;;14.97;;
13868;SDS011;7004;48.206;16.402;2023-04-10T03:19:04;18.57;;;14.57;;
13868;SDS011;7004;48.206;16.402;2023-04-10T03:21:31;17.87;;;14.90;;
13868;SDS011;7004;48.206;16.402;2023-04-10T03:23:57;17.47;;;14.03;;
13868;SDS011;7004;48.206;16.402;2023-04-10T03:26:23;18.67;;;14.33;;
13868;SDS011;7004;48.206;16.402;2023-04-10T03:28:50;19.13;;;14.23;;
13868;SDS011;7004;48.206;16.402;2023-04-10T03:31:16;17.63;;;13.23;;
13868;SDS011;7004;48.206;16.402;2023-04-10T03:33:42;19.70;;;14.63;;
13868;SDS011;7004;48.206;16.402;2023-04-10T03:36:08;18.83;;;14.40;;
13868;SDS011;7004;48.206;16.402;2023-04-10T03:38:36;18.50;;;12.93;;
13868;SDS011;7004;48.206;16.402;2023-04-10T03:41:03;20.50;;;15.20;;
13868;SDS011;7004;48.206;16.402;2023-04-10T03:43:29;19.10;;;14.07;;
13868;SDS011;7004;48.206;16.402;2023-04-10T03:45:56;17.10;;;14.00;;
13868;SDS011;7004;48.206;16.402;2023-04-10T03:48:22;18.60;;;14.07;;
13868;SDS011;7004;48.206;16.402;2023-04-10T03:50:53;16.70;;;13.17;;
13868;SDS011;7004;48.206;16.402;2023-04-10T03:53:20;18.03;;;13.63;;
13868;SDS011;7004;48.206;16.402;2023-04-10T03:55:46;18.37;;;14.53;;
13868;SDS011;7004;48.206;16.402;2023-04-10T03:58:12;20.00;;;14.20;;
13868;SDS011;7004;48.206;16.402;2023-04-10T04:00:39;16.77;;;13.20;;
13868;SDS011;7004;48.206;16.402;2023-04-10T04:03:07;17.37;;;13.90;;
13868;SDS011;7004;48.206;16.402;2023-04-10T04:05:33;18.10;;;14.40;;
13868;SDS011;7004;48.206;16.402;2023-04-10T04:07:59;19.27;;;14.63;;
13868;SDS011;7004;48.206;16.402;2023-04-10T04:10:26;18.37;;;13.47;;
13868;SDS011;7004;48.206;16.402;2023-04-10T04:12:52;20.03;;;14.90;;
13868;SDS011;7004;48.206;16.402;2023-04-10T04:15:18;18.50;;;14.60;;
13868;SDS011;7004;48.206;16.402;2023-04-10T04:17:46;20.07;;;15.03;;
13868;SDS011;7004;48.206;16.402;2023-04-10T04:20:12;17.97;;;14.03;;
13868;SDS011;7004;48.206;16.402;2023-04-10T04:22:38;16.97;;;14.07;;
13868;SDS011;7004;48.206;16.402;2023-04-10T04:25:06;18.20;;;13.53;;
13868;SDS011;7004;48.206;16.402;2023-04-10T04:27:35;18.63;;;13.50;;
13868;SDS011;7004;48.206;16.402;2023-04-10T04:30:02;17.63;;;14.10;;
13868;SDS011;7004;48.206;16.402;2023-04-10T04:32:30;16.53;;;13.30;;
13868;SDS011;7004;48.206;16.402;2023-04-10T04:34:56;17.43;;;13.60;;
13868;SDS011;7004;48.206;16.402;2023-04-10T04:37:23;18.00;;;15.03;;
13868;SDS011;7004;48.206;16.402;2023-04-10T04:39:49;17.77;;;14.27;;
13868;SDS011;7004;48.206;16.402;2023-04-10T04:42:15;18.33;;;13.43;;
13868;SDS011;7004;48.206;16.402;2023-04-10T04:44:41;17.20;;;12.83;;
13868;SDS011;7004;48.206;16.402;2023-04-10T04:47:08;15.27;;;12.67;;
13868;SDS011;7004;48.206;16.402;2023-04-10T04:49:34;16.10;;;13.27;;
13868;SDS011;7004;48.206;16.402;2023-04-10T04:52:00;15.50;;;12.43;;
13868;SDS011;7004;48.206;16.402;2023-04-10T04:54:26;17.00;;;12.57;;
13868;SDS011;7004;48.206;16.402;2023-04-10T04:56:53;18.80;;;13.67;;
13868;SDS011;7004;48.206;16.402;2023-04-10T04:59:19;15.47;;;12.23;;
13868;SDS011;7004;48.206;16.402;2023-04-10T05:01:45;16.07;;;12.73;;
13868;SDS011;7004;48.206;16.402;2023-04-10T05:04:11;16.83;;;13.00;;
13868;SDS011;7004;48.206;16.402;2023-04-10T05:06:38;17.67;;;12.93;;
13868;SDS011;7004;48.206;16.402;2023-04-10T05:09:04;16.97;;;13.30;;
13868;SDS011;7004;48.206;16.402;2023-04-10T05:11:30;16.90;;;13.27;;
13868;SDS011;7004;48.206;16.402;2023-04-10T05:13:56;16.23;;;12.93;;
13868;SDS011;7004;48.206;16.402;2023-04-10T05:16:22;17.17;;;13.77;;
13868;SDS011;7004;48.206;16.402;2023-04-10T05:18:48;16.80;;;13.30;;
13868;SDS011;7004;48.206;16.402;2023-04-10T05:21:14;16.00;;;13.17;;
13868;SDS011;7004;48.206;16.402;2023-04-10T05:23:40;17.53;;;13.93;;
13868;SDS011;7004;48.206;16.402;2023-04-10T05:26:06;16.97;;;14.27;;
13868;SDS011;7004;48.206;16.402;2023-04-10T05:28:32;15.77;;;12.80;;
13868;SDS011;7004;48.206;16.402;2023-04-10T05:30:58;17.93;;;14.43;;
13868;SDS011;7004;48.206;16.402;2023-04-10T05:33:25;18.63;;;14.33;;
13868;SDS011;7004;48.206;16.402;2023-04-10T05:35:51;17.27;;;13.23;;
13868;SDS011;7004;48.206;16.402;2023-04-10T05:38:18;18.07;;;14.63;;
13868;SDS011;7004;48.206;16.402;2023-04-10T05:40:44;17.10;;;14.00;;
13868;SDS011;7004;48.206;16.402;2023-04-10T05:43:11;17.03;;;14.10;;
13868;SDS011;7004;48.206;16.402;2023-04-10T05:45:37;19.50;;;14.80;;
13868;SDS011;7004;48.206;16.402;2023-04-10T05:48:04;16.60;;;14.07;;
13868;SDS011;7004;48.206;16.402;2023-04-10T05:50:31;18.37;;;14.47;;
13868;SDS011;7004;48.206;16.402;2023-04-10T05:52:59;19.60;;;15.20;;
13868;SDS011;7004;48.206;16.402;2023-04-10T05:55:25;20.23;;;15.10;;
13868;SDS011;7004;48.206;16.402;2023-04-10T05:57:51;18.10;;;14.50;;
13868;SDS011;7004;48.206;16.402;2023-04-10T06:00:18;20.90;;;15.27;;
13868;SDS011;7004;48.206;16.402;2023-04-10T06:02:44;19.37;;;15.30;;
13868;SDS011;7004;48.206;16.402;2023-04-10T06:05:10;19.37;;;14.47;;
13868;SDS011;7004;48.206;16.402;2023-04-10T06:07:36;17.43;;;14.37;;
13868;SDS011;7004;48.206;16.402;2023-04-10T06:10:02;18.53;;;14.93;;
13868;SDS011;7004;48.206;16.402;2023-04-10T06:12:29;18.83;;;15.13;;
13868;SDS011;7004;48.206;16.402;2023-04-10T06:14:55;17.77;;;13.67;;
13868;SDS011;7004;48.206;16.402;2023-04-10T06:17:21;16.33;;;14.10;;
13868;SDS011;7004;48.206;16.402;2023-04-10T06:19:50;21.23;;;16.53;;
13868;SDS011;7004;48.206;16.402;2023-04-10T06:22:15;19.17;;;15.40;;
13868;SDS011;7004;48.206;16.402;2023-04-10T06:24:42;18.43;;;15.43;;
13868;SDS011;7004;48.206;16.402;2023-04-10T06:27:08;20.33;;;15.20;;
13868;SDS011;7004;48.206;16.402;2023-04-10T06:29:34;21.30;;;16.90;;
13868;SDS011;7004;48.206;16.402;2023-04-10T06:32:02;21.67;;;16.07;;
13868;SDS011;7004;48.206;16.402;2023-04-10T06:34:29;19.53;;;15.47;;
13868;SDS011;7004;48.206;16.402;2023-04-10T06:36:55;21.57;;;16.77;;
13868;SDS011;7004;48.206;16.402;2023-04-10T06:39:21;19.83;;;15.93;;
13868;SDS011;7004;48.206;16.402;2023-04-10T06:41:47;20.27;;;16.60;;
13868;SDS011;7004;48.206;16.402;2023-04-10T06:44:13;20.80;;;17.70;;
13868;SDS011;7004;48.206;16.402;2023-04-10T06:46:40;21.53;;;16.70;;
13868;SDS011;7004;48.206;16.402;2023-04-10T06:49:06;22.43;;;16.90;;
13868;SDS011;7004;48.206;16.402;2023-04-10T06:51:32;23.17;;;17.00;;
13868;SDS011;7004;48.206;16.402;2023-04-10T06:53:58;23.10;;;18.90;;
13868;SDS011;7004;48.206;16.402;2023-04-10T06:56:24;21.17;;;16.80;;
13868;SDS011;7004;48.206;16.402;2023-04-10T06:58:50;24.27;;;17.93;;
13868;SDS011;7004;48.206;16.402;2023-04-10T07:01:16;22.50;;;18.07;;
13868;SDS011;7004;48.206;16.402;2023-04-10T07:03:42;22.77;;;18.23;;
13868;SDS011;7004;48.206;16.402;2023-04-10T07:06:09;21.77;;;17.73;;
13868;SDS011;7004;48.206;16.402;2023-04-10T07:08:35;21.57;;;17.47;;
13868;SDS011;7004;48.206;16.402;2023-04-10T07:11:01;23.17;;;17.93;;
13868;SDS011;7004;48.206;16.402;2023-04-10T07:13:28;21.90;;;17.77;;
13868;SDS011;7004;48.206;16.402;2023-04-10T07:15:54;23.03;;;18.07;;
13868;SDS011;7004;48.206;16.402;2023-04-10T07:18:20;24.77;;;18.33;;
13868;SDS011;7004;48.206;16.402;2023-04-10T07:20:46;23.03;;;18.33;;
13868;SDS011;7004;48.206;16.402;2023-04-10T07:23:12;24.13;;;19.20;;
13868;SDS011;7004;48.206;16.402;2023-04-10T07:25:40;25.13;;;19.07;;
13868;SDS011;7004;48.206;16.402;2023-04-10T07:28:06;23.20;;;19.33;;
13868;SDS011;7004;48.206;16.402;2023-04-10T07:30:32;23.70;;;18.43;;
13868;SDS011;7004;48.206;16.402;2023-04-10T07:32:58;24.57;;;19.70;;
13868;SDS011;7004;48.206;16.402;2023-04-10T07:35:24;22.43;;;18.30;;
13868;SDS011;7004;48.206;16.402;2023-04-10T07:37:51;22.57;;;17.87;;
13868;SDS011;7004;48.206;16.402;2023-04-10T07:40:18;21.97;;;17.37;;
13868;SDS011;7004;48.206;16.402;2023-04-10T07:42:45;20.30;;;16.60;;
13868;SDS011;7004;48.206;16.402;2023-04-10T07:45:11;22.27;;;18.03;;
13868;SDS011;7004;48.206;16.402;2023-04-10T07:47:37;21.93;;;16.77;;
13868;SDS011;7004;48.206;16.402;2023-04-10T07:50:04;21.60;;;17.57;;
13868;SDS011;7004;48.206;16.402;2023-04-10T07:52:31;23.97;;;18.83;;
13868;SDS011;7004;48.206;16.402;2023-04-10T07:55:00;26.77;;;20.23;;
13868;SDS011;7004;48.206;16.402;2023-04-10T07:57:29;25.30;;;20.83;;
13868;SDS011;7004;48.206;16.402;2023-04-10T07:59:56;22.63;;;18.30;;
13868;SDS011;7004;48.206;16.402;2023-04-10T08:02:22;26.70;;;19.87;;
13868;SDS011;7004;48.206;16.402;2023-04-10T08:04:48;25.23;;;20.57;;
13868;SDS011;7004;48.206;16.402;2023-04-10T08:07:14;26.67;;;21.17;;
13868;SDS011;7004;48.206;16.402;2023-04-10T08:09:41;26.07;;;21.27;;
13868;SDS011;7004;48.206;16.402;2023-04-10T08:12:07;28.13;;;22.50;;
13868;SDS011;7004;48.206;16.402;2023-04-10T08:14:33;30.17;;;23.73;;
13868;SDS011;7004;48.206;16.402;2023-04-10T08:17:00;30.73;;;23.83;;
13868;SDS011;7004;48.206;16.402;2023-04-10T08:19:26;28.20;;;22.63;;
13868;SDS011;7004;48.206;16.402;2023-04-10T08:21:52;28.83;;;21.73;;
13868;SDS011;7004;48.206;16.402;2023-04-10T08:24:18;26.33;;;21.73;;
13868;SDS011;7004;48.206;16.402;2023-04-10T08:26:46;26.77;;;22.20;;
13868;SDS011;7004;48.206;16.402;2023-04-10T08:29:12;27.27;;;23.27;;
13868;SDS011;7004;48.206;16.402;2023-04-10T08:31:38;27.57;;;22.20;;
13868;SDS011;7004;48.206;16.402;2023-04-10T08:34:05;28.53;;;23.73;;
13868;SDS011;7004;48.206;16.402;2023-04-10T08:36:32;28.83;;;22.57;;
13868;SDS011;7004;48.206;16.402;2023-04-10T08:38:59;26.57;;;21.73;;
13868;SDS011;7004;48.206;16.402;2023-04-10T08:41:25;29.97;;;21.90;;
13868;SDS011;7004;48.206;16.402;2023-04-10T08:43:51;24.57;;;20.90;;
13868;SDS011;7004;48.206;16.402;2023-04-10T08:46:17;24.97;;;21.27;;
13868;SDS011;7004;48.206;16.402;2023-04-10T08:48:45;25.73;;;21.57;;
13868;SDS011;7004;48.206;16.402;2023-04-10T08:51:20;26.60;;;21.50;;
13868;SDS011;7004;48.206;16.402;2023-04-10T08:53:53;27.53;;;21.57;;
13868;SDS011;7004;48.206;16.402;2023-04-10T08:56:29;24.43;;;21.00;;
13868;SDS011;7004;48.206;16.402;2023-04-10T08:58:58;25.57;;;21.70;;
13868;SDS011;7004;48.206;16.402;2023-04-10T09:01:26;24.53;;;21.13;;
13868;SDS011;7004;48.206;16.402;2023-04-10T09:03:53;29.00;;;21.30;;
13868;SDS011;7004;48.206;16.402;2023-04-10T09:06:19;25.30;;;21.97;;
13868;SDS011;7004;48.206;16.402;2023-04-10T09:08:45;29.30;;;22.37;;
13868;SDS011;7004;48.206;16.402;2023-04-10T09:11:11;23.70;;;20.83;;
13868;SDS011;7004;48.206;16.402;2023-04-10T09:13:40;23.87;;;20.03;;
13868;SDS011;7004;48.206;16.402;2023-04-10T09:16:11;25.03;;;21.07;;
13868;SDS011;7004;48.206;16.402;2023-04-10T09:18:48;24.47;;;20.97;;
13868;SDS011;7004;48.206;16.402;2023-04-10T09:21:17;26.00;;;21.03;;
13868;SDS011;7004;48.206;16.402;2023-04-10T09:23:45;27.17;;;21.73;;
13868;SDS011;7004;48.206;16.402;2023-04-10T09:26:26;25.63;;;22.37;;
13868;SDS011;7004;48.206;16.402;2023-04-10T09:29:04;26.80;;;21.40;;
13868;SDS011;7004;48.206;16.402;2023-04-10T09:36:42;25.23;;;21.93;;
13868;SDS011;7004;48.206;16.402;2023-04-10T09:39:36;24.77;;;20.97;;
13868;SDS011;7004;48.206;16.402;2023-04-10T09:42:07;25.33;;;20.40;;
13868;SDS011;7004;48.206;16.402;2023-04-10T09:44:36;25.60;;;22.00;;
13868;SDS011;7004;48.206;16.402;2023-04-10T09:47:17;26.10;;;21.77;;
13868;SDS011;7004;48.206;16.402;2023-04-10T09:52:16;25.53;;;22.50;;
13868;SDS011;7004;48.206;16.402;2023-04-10T09:54:43;28.87;;;22.67;;
13868;SDS011;7004;48.206;16.402;2023-04-10T09:57:12;24.30;;;20.33;;
13868;SDS011;7004;48.206;16.402;2023-04-10T09:59:47;26.10;;;21.73;;
13868;SDS011;7004;48.206;16.402;2023-04-10T10:02:16;25.83;;;22.27;;
13868;SDS011;7004;48.206;16.402;2023-04-10T10:04:45;25.37;;;21.27;;
13868;SDS011;7004;48.206;16.402;2023-04-10T10:07:13;27.77;;;22.70;;
13868;SDS011;7004;48.206;16.402;2023-04-10T10:09:46;26.53;;;21.87;;
13868;SDS011;7004;48.206;16.402;2023-04-10T10:12:15;26.37;;;21.80;;
13868;SDS011;7004;48.206;16.402;2023-04-10T10:14:50;30.37;;;24.20;;
13868;SDS011;7004;48.206;16.402;2023-04-10T10:17:28;30.03;;;23.03;;
13868;SDS011;7004;48.206;16.402;2023-04-10T10:20:03;28.10;;;23.43;;
13868;SDS011;7004;48.206;16.402;2023-04-10T10:22:35;25.03;;;21.40;;
13868;SDS011;7004;48.206;16.402;2023-04-10T10:25:02;28.20;;;24.37;;
13868;SDS011;7004;48.206;16.402;2023-04-10T10:27:30;27.07;;;23.50;;
13868;SDS011;7004;48.206;16.402;2023-04-10T10:29:58;28.00;;;22.53;;
13868;SDS011;7004;48.206;16.402;2023-04-10T10:32:25;30.07;;;23.97;;
13868;SDS011;7004;48.206;16.402;2023-04-10T10:34:52;28.27;;;23.80;;
13868;SDS011;7004;48.206;16.402;2023-04-10T10:37:18;29.77;;;23.50;;
13868;SDS011;7004;48.206;16.402;2023-04-10T10:42:49;28.60;;;23.70;;
13868;SDS011;7004;48.206;16.402;2023-04-10T10:48:35;27.90;;;23.50;;
13868;SDS011;7004;48.206;16.402;2023-04-10T10:51:02;26.70;;;22.80;;
13868;SDS011;7004;48.206;16.402;2023-04-10T10:53:39;27.53;;;23.20;;
13868;SDS011;7004;48.206;16.402;2023-04-10T10:58:45;26.83;;;23.23;;
13868;SDS011;7004;48.206;16.402;2023-04-10T11:01:17;27.93;;;24.33;;
13868;SDS011;7004;48.206;16.402;2023-04-10T11:03:45;27.13;;;23.53;;
13868;SDS011;7004;48.206;16.402;2023-04-10T11:06:16;26.23;;;23.43;;
13868;SDS011;7004;48.206;16.402;2023-04-10T11:08:47;29.13;;;23.87;;
13868;SDS011;7004;48.206;16.402;2023-04-10T11:11:23;27.77;;;23.20;;
13868;SDS011;7004;48.206;16.402;2023-04-10T11:16:18;24.77;;;21.97;;
13868;SDS011;7004;48.206;16.402;2023-04-10T11:21:14;26.97;;;22.63;;
13868;SDS011;7004;48.206;16.402;2023-04-10T11:31:39;27.00;;;22.40;;
13868;SDS011;7004;48.206;16.402;2023-04-10T11:34:07;27.43;;;22.27;;
13868;SDS011;7004;48.206;16.402;2023-04-10T11:36:42;25.53;;;22.37;;
13868;SDS011;7004;48.206;16.402;2023-04-10T11:39:12;24.97;;;22.27;;
13868;SDS011;7004;48.206;16.402;2023-04-10T11:41:52;24.50;;;21.83;;
13868;SDS011;7004;48.206;16.402;2023-04-10T11:44:28;23.60;;;20.83;;
13868;SDS011;7004;48.206;16.402;2023-04-10T11:47:06;26.70;;;22.60;;
13868;SDS011;7004;48.206;16.402;2023-04-10T11:49:37;25.43;;;22.17;;
13868;SDS011;7004;48.206;16.402;2023-04-10T11:52:03;24.40;;;21.77;;
13868;SDS011;7004;48.206;16.402;2023-04-10T11:54:29;25.13;;;21.83;;
13868;SDS011;7004;48.206;16.402;2023-04-10T11:57:03;25.27;;;22.03;;
13868;SDS011;7004;48.206;16.402;2023-04-10T11:59:36;25.80;;;22.73;;
13868;SDS011;7004;48.206;16.402;2023-04-10T12:02:06;26.20;;;22.00;;
13868;SDS011;7004;48.206;16.402;2023-04-10T12:04:43;24.53;;;21.93;;
13868;SDS011;7004;48.206;16.402;2023-04-10T12:07:09;25.93;;;21.97;;
13868;SDS011;7004;48.206;16.402;2023-04-10T12:09:35;25.00;;;22.13;;
13868;SDS011;7004;48.206;16.402;2023-04-10T12:12:02;24.80;;;22.10;;
13868;SDS011;7004;48.206;16.402;2023-04-10T12:14:40;24.13;;;21.13;;
13868;SDS011;7004;48.206;16.402;2023-04-10T12:17:07;25.57;;;22.00;;
13868;SDS011;7004;48.206;16.402;2023-04-10T12:19:36;22.67;;;20.17;;
13868;SDS011;7004;48.206;16.402;2023-04-10T12:22:03;24.50;;;21.57;;
13868;SDS011;7004;48.206;16.402;2023-04-10T12:24:42;25.07;;;21.67;;
13868;SDS011;7004;48.206;16.402;2023-04-10T12:27:16;27.47;;;23.10;;
13868;SDS011;7004;48.206;16.402;2023-04-10T12:29:47;25.90;;;22.37;;
13868;SDS011;7004;48.206;16.402;2023-04-10T12:32:15;24.07;;;21.33;;
13868;SDS011;7004;48.206;16.402;2023-04-10T12:34:48;25.33;;;21.57;;
13868;SDS011;7004;48.206;16.402;2023-04-10T12:37:22;27.97;;;22.43;;
13868;SDS011;7004;48.206;16.402;2023-04-10T12:39:52;25.53;;;21.73;;
13868;SDS011;7004;48.206;16.402;2023-04-10T12:42:29;25.40;;;22.33;;
13868;SDS011;7004;48.206;16.402;2023-04-10T12:45:04;27.97;;;23.20;;
13868;SDS011;7004;48.206;16.402;2023-04-10T12:47:41;24.67;;;21.57;;
13868;SDS011;7004;48.206;16.402;2023-04-10T12:50:14;25.53;;;22.00;;
13868;SDS011;7004;48.206;16.402;2023-04-10T12:52:43;22.47;;;20.10;;
13868;SDS011;7004;48.206;16.402;2023-04-10T12:55:15;22.33;;;19.90;;
13868;SDS011;7004;48.206;16.402;2023-04-10T12:57:45;22.40;;;20.00;;
13868;SDS011;7004;48.206;16.402;2023-04-10T13:00:14;23.37;;;20.87;;
13868;SDS011;7004;48.206;16.402;2023-04-10T13:02:42;23.70;;;21.20;;
13868;SDS011;7004;48.206;16.402;2023-04-10T13:05:10;23.33;;;20.83;;
13868;SDS011;7004;48.206;16.402;2023-04-10T13:07:38;22.13;;;19.73;;
13868;SDS011;7004;48.206;16.402;2023-04-10T13:10:05;24.63;;;21.50;;
13868;SDS011;7004;48.206;16.402;2023-04-10T13:12:33;23.60;;;19.00;;
13868;SDS011;7004;48.206;16.402;2023-04-10T13:15:00;21.00;;;18.73;;
13868;SDS011;7004;48.206;16.402;2023-04-10T13:17:27;23.00;;;20.30;;
13868;SDS011;7004;48.206;16.402;2023-04-10T13:19:54;21.50;;;19.17;;
13868;SDS011;7004;48.206;16.402;2023-04-10T13:22:20;24.07;;;20.63;;
13868;SDS011;7004;48.206;16.402;2023-04-10T13:24:46;21.40;;;19.10;;
13868;SDS011;7004;48.206;16.402;2023-04-10T13:27:12;21.77;;;19.47;;
13868;SDS011;7004;48.206;16.402;2023-04-10T13:29:39;23.23;;;19.50;;
13868;SDS011;7004;48.206;16.402;2023-04-10T13:32:06;22.37;;;19.97;;
13868;SDS011;7004;48.206;16.402;2023-04-10T13:34:33;22.70;;;20.00;;
13868;SDS011;7004;48.206;16.402;2023-04-10T13:37:00;24.13;;;21.43;;
13868;SDS011;7004;48.206;16.402;2023-04-10T13:39:27;22.33;;;19.93;;
13868;SDS011;7004;48.206;16.402;2023-04-10T13:41:55;23.17;;;20.17;;
13868;SDS011;7004;48.206;16.402;2023-04-10T13:44:26;21.93;;;19.33;;
13868;SDS011;7004;48.206;16.402;2023-04-10T13:46:52;23.37;;;20.97;;
13868;SDS011;7004;48.206;16.402;2023-04-10T13:49:19;23.23;;;19.87;;
13868;SDS011;7004;48.206;16.402;2023-04-10T13:51:46;20.87;;;18.43;;
13868;SDS011;7004;48.206;16.402;2023-04-10T13:54:12;22.20;;;19.33;;
13868;SDS011;7004;48.206;16.402;2023-04-10T13:56:41;19.57;;;17.23;;
13868;SDS011;7004;48.206;16.402;2023-04-10T13:59:08;20.87;;;18.57;;
13868;SDS011;7004;48.206;16.402;2023-04-10T14:01:35;23.70;;;19.97;;
13868;SDS011;7004;48.206;16.402;2023-04-10T14:04:01;23.53;;;20.03;;
13868;SDS011;7004;48.206;16.402;2023-04-10T14:06:27;20.90;;;18.67;;
13868;SDS011;7004;48.206;16.402;2023-04-10T14:08:54;25.27;;;19.47;;
13868;SDS011;7004;48.206;16.402;2023-04-10T14:11:20;21.57;;;19.27;;
13868;SDS011;7004;48.206;16.402;2023-04-10T14:13:47;20.13;;;17.97;;
13868;SDS011;7004;48.206;16.402;2023-04-10T14:16:13;22.33;;;19.80;;
13868;SDS011;7004;48.206;16.402;2023-04-10T14:18:39;22.37;;;19.93;;
13868;SDS011;7004;48.206;16.402;2023-04-10T14:21:05;23.37;;;20.00;;
13868;SDS011;7004;48.206;16.402;2023-04-10T14:23:32;23.27;;;20.67;;
13868;SDS011;7004;48.206;16.402;2023-04-10T14:25:58;21.97;;;19.53;;
13868;SDS011;7004;48.206;16.402;2023-04-10T14:28:24;23.40;;;19.63;;
13868;SDS011;7004;48.206;16.402;2023-04-10T14:30:51;22.07;;;19.53;;
13868;SDS011;7004;48.206;16.402;2023-04-10T14:33:17;22.23;;;19.57;;
13868;SDS011;7004;48.206;16.402;2023-04-10T14:35:44;24.07;;;19.30;;
13868;SDS011;7004;48.206;16.402;2023-04-10T14:38:11;20.37;;;18.13;;
13868;SDS011;7004;48.206;16.402;2023-04-10T14:40:37;20.23;;;17.73;;
13868;SDS011;7004;48.206;16.402;2023-04-10T14:43:05;21.40;;;19.10;;
13868;SDS011;7004;48.206;16.402;2023-04-10T14:45:31;20.97;;;18.13;;
13868;SDS011;7004;48.206;16.402;2023-04-10T14:47:58;20.53;;;17.17;;
13868;SDS011;7004;48.206;16.402;2023-04-10T14:50:25;19.47;;;16.23;;
13868;SDS011;7004;48.206;16.402;2023-04-10T14:52:51;18.37;;;16.40;;
13868;SDS011;7004;48.206;16.402;2023-04-10T14:55:17;18.23;;;16.27;;
13868;SDS011;7004;48.206;16.402;2023-04-10T14:57:44;19.20;;;16.97;;
13868;SDS011;7004;48.206;16.402;2023-04-10T15:00:10;19.70;;;17.53;;
13868;SDS011;7004;48.206;16.402;2023-04-10T15:02:37;19.60;;;17.33;;
13868;SDS011;7004;48.206;16.402;2023-04-10T15:05:03;18.93;;;16.90;;
13868;SDS011;7004;48.206;16.402;2023-04-10T15:07:30;19.03;;;17.03;;
13868;SDS011;7004;48.206;16.402;2023-04-10T15:09:56;18.70;;;16.70;;